createdAt,value
2018-11-28T07:29:16.836Z,38.97
2018-11-28T07:31:45.286Z,36.20
2018-11-28T07:34:13.736Z,33.30
2018-11-28T07:36:42.250Z,36.07
2018-11-28T07:39:10.666Z,32.93
2018-11-28T07:41:39.166Z,34.17
2018-11-28T07:44:07.612Z,32.10
2018-11-28T07:46:36.133Z,32.37
2018-11-28T07:49:04.598Z,33.00
2018-11-28T07:51:33.122Z,33.20
2018-11-28T07:54:01.887Z,33.87
2018-11-28T07:56:30.384Z,32.10
2018-11-28T07:58:58.824Z,31.27
2018-11-28T08:01:27.324Z,32.40
2018-11-28T08:03:55.855Z,32.13
2018-11-28T08:06:24.394Z,31.50
2018-11-28T08:08:57.061Z,33.30
2018-11-28T08:11:25.933Z,30.70
2018-11-28T08:13:54.632Z,29.03
2018-11-28T08:16:23.081Z,31.73
2018-11-28T08:18:51.487Z,29.63
2018-11-28T08:21:19.989Z,29.43
2018-11-28T08:23:48.459Z,29.13
2018-11-28T08:26:16.947Z,29.50
2018-11-28T08:28:45.373Z,32.17
2018-11-28T08:31:13.813Z,31.47
2018-11-28T08:33:42.353Z,30.27
2018-11-28T08:36:10.823Z,28.67
2018-11-28T08:38:39.335Z,28.90
2018-11-28T08:41:08.795Z,29.87
2018-11-28T08:43:36.421Z,28.70
2018-11-28T08:46:04.965Z,27.03
2018-11-28T08:48:33.465Z,28.17
2018-11-28T08:51:01.933Z,28.70
2018-11-28T08:53:30.429Z,27.67
2018-11-28T08:55:58.847Z,29.80
2018-11-28T08:58:27.358Z,27.70
2018-11-28T09:00:55.793Z,27.53
2018-11-28T09:03:24.245Z,26.57
2018-11-28T09:05:52.752Z,26.93
2018-11-28T09:08:21.243Z,27.57
2018-11-28T09:10:49.751Z,28.17
2018-11-28T09:13:18.178Z,28.00
2018-11-28T09:15:46.646Z,29.23
2018-11-28T09:18:15.172Z,29.80
2018-11-28T09:20:43.602Z,31.17
2018-11-28T09:23:12.094Z,28.57
2018-11-28T09:25:40.478Z,32.10
2018-11-28T09:28:08.983Z,28.37
2018-11-28T09:30:37.448Z,29.57
2018-11-28T09:33:06.356Z,29.60
2018-11-28T09:35:34.843Z,28.63
2018-11-28T09:38:04.282Z,26.43
2018-11-28T09:40:32.840Z,27.17
2018-11-28T09:43:01.253Z,28.27
2018-11-28T09:45:29.756Z,26.27
2018-11-28T09:47:58.347Z,26.60
2018-11-28T09:50:27.153Z,26.93
2018-11-28T09:52:55.565Z,26.87
2018-11-28T09:55:26.004Z,27.03
2018-11-28T09:57:54.464Z,27.90
2018-11-28T10:00:28.821Z,24.40
2018-11-28T10:02:59.094Z,26.30
2018-11-28T10:05:28.776Z,27.60
2018-11-28T10:07:57.322Z,28.00
2018-11-28T10:10:25.970Z,27.07
2018-11-28T10:12:54.510Z,27.73
2018-11-28T10:15:24.801Z,27.40
2018-11-28T10:17:53.349Z,25.60
2018-11-28T10:20:21.864Z,28.27
2018-11-28T10:22:51.567Z,28.33
2018-11-28T10:25:21.059Z,26.67
2018-11-28T10:27:52.126Z,25.63
2018-11-28T10:30:23.674Z,26.57
2018-11-28T10:32:53.724Z,26.23
2018-11-28T10:35:22.208Z,27.17
2018-11-28T10:37:50.813Z,28.10
2018-11-28T10:40:21.211Z,28.30
2018-11-28T10:42:56.512Z,25.27
2018-11-28T10:45:26.799Z,27.23
2018-11-28T10:47:55.436Z,28.60
2018-11-28T10:50:23.923Z,30.43
2018-11-28T10:52:52.419Z,26.33
2018-11-28T10:55:21.703Z,25.00
2018-11-28T10:57:50.491Z,25.20
2018-11-28T11:00:29.830Z,25.60
2018-11-28T11:03:04.487Z,26.07
2018-11-28T11:05:38.317Z,25.50
2018-11-28T11:08:12.839Z,24.93
2018-11-28T11:10:46.655Z,24.50
2018-11-28T11:13:20.377Z,25.17
2018-11-28T11:15:54.212Z,25.20
2018-11-28T11:18:22.798Z,24.60
2018-11-28T11:20:51.312Z,23.00
2018-11-28T11:23:19.824Z,23.17
2018-11-28T11:25:48.438Z,23.87
2018-11-28T11:28:16.916Z,23.23
2018-11-28T11:30:45.566Z,23.07
2018-11-28T11:33:14.112Z,22.87
2018-11-28T11:35:42.641Z,24.20
2018-11-28T11:38:11.109Z,23.67
2018-11-28T11:40:39.640Z,22.57
2018-11-28T11:43:08.503Z,25.63
2018-11-28T11:45:37.058Z,27.63
2018-11-28T11:48:05.992Z,24.53
2018-11-28T11:50:34.636Z,24.60
2018-11-28T11:53:03.252Z,23.37
2018-11-28T11:55:31.705Z,22.73
2018-11-28T11:58:00.219Z,23.00
2018-11-28T12:00:28.743Z,22.60
2018-11-28T12:03:04.864Z,21.33
2018-11-28T12:05:33.324Z,22.47
2018-11-28T12:08:01.905Z,24.53
2018-11-28T12:10:30.385Z,24.23
2018-11-28T12:12:58.831Z,25.23
2018-11-28T12:15:27.239Z,24.70
2018-11-28T12:17:55.706Z,24.30
2018-11-28T12:20:28.006Z,25.03
2018-11-28T12:22:56.498Z,24.33
2018-11-28T12:25:24.964Z,26.53
2018-11-28T12:27:53.505Z,27.47
2018-11-28T12:30:22.014Z,27.00
2018-11-28T12:32:50.426Z,26.93
2018-11-28T12:35:19.415Z,27.37
2018-11-28T12:37:47.933Z,30.13
2018-11-28T12:40:23.341Z,27.70
2018-11-28T12:42:52.856Z,28.20
2018-11-28T12:45:21.768Z,33.17
2018-11-28T12:47:50.391Z,30.63
2018-11-28T12:50:24.854Z,31.30
2018-11-28T12:52:54.403Z,33.17
2018-11-28T12:55:23.275Z,30.10
2018-11-28T12:57:52.927Z,31.23
2018-11-28T13:00:22.992Z,31.13
2018-11-28T13:02:51.593Z,29.20
2018-11-28T13:05:21.235Z,30.67
2018-11-28T13:07:49.730Z,30.57
2018-11-28T13:10:21.460Z,34.37
2018-11-28T13:12:50.610Z,30.57
2018-11-28T13:15:20.120Z,30.27
2018-11-28T13:17:48.530Z,31.37
2018-11-28T13:20:18.114Z,30.07
2018-11-28T13:22:47.544Z,37.53
2018-11-28T13:25:18.230Z,29.97
2018-11-28T13:27:46.684Z,29.57
2018-11-28T13:30:20.206Z,31.83
2018-11-28T13:32:49.355Z,29.83
2018-11-28T13:35:18.973Z,33.60
2018-11-28T13:37:48.490Z,32.40
2018-11-28T13:40:18.032Z,31.27
2018-11-28T13:42:46.529Z,32.83
2018-11-28T13:45:20.985Z,30.80
2018-11-28T13:47:51.483Z,31.07
2018-11-28T13:50:19.965Z,29.07
2018-11-28T13:52:48.756Z,28.23
2018-11-28T13:55:42.092Z,30.60
2018-11-28T13:57:54.361Z,30.80
2018-11-28T14:00:22.910Z,29.07
2018-11-28T14:02:51.378Z,37.00
2018-11-28T14:05:19.942Z,34.17
2018-11-28T14:07:48.434Z,28.17
2018-11-28T14:10:16.924Z,30.30
2018-11-28T14:12:45.408Z,29.70
2018-11-28T14:15:15.804Z,32.37
2018-11-28T14:17:45.764Z,29.57
2018-11-28T14:20:14.252Z,32.70
2018-11-28T14:22:42.620Z,32.20
2018-11-28T14:25:12.476Z,33.23
2018-11-28T14:27:41.109Z,33.00
2018-11-28T14:30:15.726Z,34.83
2018-11-28T14:32:44.694Z,30.90
2018-11-28T14:35:13.272Z,31.47
2018-11-28T14:37:41.830Z,34.77
2018-11-28T14:40:15.538Z,33.33
2018-11-28T14:42:45.022Z,33.90
2018-11-28T14:45:15.590Z,30.13
2018-11-28T14:47:44.451Z,33.07
2018-11-28T14:50:15.310Z,32.43
2018-11-28T14:52:44.075Z,37.87
2018-11-28T14:55:15.677Z,34.03
2018-11-28T14:57:44.130Z,32.90
2018-11-28T15:00:15.685Z,35.20
2018-11-28T15:02:44.555Z,34.73
2018-11-28T15:05:20.862Z,38.67
2018-11-28T15:07:50.918Z,34.03
2018-11-28T15:10:21.713Z,33.30
2018-11-28T15:12:50.222Z,34.83
2018-11-28T15:15:18.680Z,34.67
2018-11-28T15:17:47.150Z,31.23
2018-11-28T15:20:15.561Z,34.17
2018-11-28T15:22:44.030Z,36.50
2018-11-28T15:25:12.636Z,34.60
2018-11-28T15:27:41.115Z,32.27
2018-11-28T15:30:09.856Z,33.27
2018-11-28T15:32:38.280Z,34.53
2018-11-28T15:35:06.744Z,34.20
2018-11-28T15:37:35.263Z,31.50
2018-11-28T15:40:03.817Z,31.03
2018-11-28T15:42:32.246Z,34.03
2018-11-28T15:45:00.771Z,31.67
2018-11-28T15:47:29.250Z,30.00
2018-11-28T15:49:57.818Z,33.77
2018-11-28T15:53:35.791Z,34.40
2018-11-28T15:56:04.230Z,30.00
2018-11-28T15:58:32.674Z,30.80
2018-11-28T16:01:01.131Z,35.07
2018-11-28T16:03:29.598Z,34.53
2018-11-28T16:05:58.138Z,35.13
2018-11-28T16:08:26.604Z,32.27
2018-11-28T16:10:55.164Z,36.90
2018-11-28T16:13:23.683Z,30.03
2018-11-28T16:15:54.514Z,31.13
2018-11-28T16:18:23.005Z,32.33
2018-11-28T16:20:51.497Z,36.23
2018-11-28T16:23:19.961Z,34.43
2018-11-28T16:25:48.417Z,27.97
2018-11-28T16:28:16.976Z,29.33
2018-11-28T16:30:45.446Z,27.13
2018-11-28T16:33:13.968Z,30.20
2018-11-28T16:35:42.426Z,30.97
2018-11-28T16:38:10.910Z,27.10
2018-11-28T16:40:39.343Z,28.53
2018-11-28T16:43:07.793Z,29.27
2018-11-28T16:45:36.212Z,29.93
2018-11-28T16:48:04.696Z,30.40
2018-11-28T16:50:33.308Z,30.40
2018-11-28T16:53:01.793Z,31.40
2018-11-28T16:55:30.223Z,30.43
2018-11-28T16:57:58.717Z,30.63
2018-11-28T17:00:28.464Z,31.40
2018-11-28T17:02:57.118Z,30.50
2018-11-28T17:05:25.710Z,30.40
2018-11-28T17:07:54.323Z,31.63
2018-11-28T17:10:25.090Z,30.17
2018-11-28T17:12:54.053Z,29.10
2018-11-28T17:15:22.579Z,30.97
2018-11-28T17:17:51.055Z,30.50
2018-11-28T17:20:25.963Z,30.17
2018-11-28T17:22:55.635Z,34.10
2018-11-28T17:25:27.274Z,32.23
2018-11-28T17:27:55.733Z,34.03
2018-11-28T17:30:25.423Z,33.53
2018-11-28T17:32:54.643Z,32.87
2018-11-28T17:35:22.437Z,30.70
2018-11-28T17:37:51.178Z,32.00
2018-11-28T17:40:22.669Z,29.73
2018-11-28T17:42:52.513Z,33.73
2018-11-28T17:45:21.464Z,32.67
2018-11-28T17:47:50.013Z,33.27
2018-11-28T17:50:21.417Z,33.60
2018-11-28T17:52:56.566Z,37.93
2018-11-28T17:55:25.741Z,37.80
2018-11-28T17:57:54.263Z,36.57
2018-11-28T18:00:22.824Z,35.90
2018-11-28T18:02:51.385Z,36.03
2018-11-28T18:05:19.880Z,36.27
2018-11-28T18:07:48.346Z,37.23
2018-11-28T18:10:18.163Z,39.37
2018-11-28T18:12:57.850Z,37.97
2018-11-28T18:15:26.426Z,38.33
2018-11-28T18:17:56.119Z,38.23
2018-11-28T18:20:24.657Z,37.03
2018-11-28T18:22:53.138Z,37.73
2018-11-28T18:25:22.042Z,38.53
2018-11-28T18:27:50.510Z,44.90
2018-11-28T18:30:18.992Z,37.83
2018-11-28T18:32:47.473Z,40.90
2018-11-28T18:35:15.923Z,38.13
2018-11-28T18:37:44.397Z,37.97
2018-11-28T18:40:13.310Z,38.17
2018-11-28T18:42:42.516Z,79.83
2018-11-28T18:45:15.602Z,39.90
2018-11-28T18:47:44.103Z,56.20
2018-11-28T18:50:13.328Z,43.80
2018-11-28T18:52:41.821Z,38.77
2018-11-28T18:55:16.622Z,41.30
2018-11-28T18:57:42.167Z,39.23
2018-11-28T19:00:14.012Z,41.50
2018-11-28T19:02:42.761Z,49.73
2018-11-28T19:05:11.223Z,42.87
2018-11-28T19:07:39.693Z,43.97
2018-11-28T19:10:10.945Z,42.37
2018-11-28T19:12:39.396Z,42.40
2018-11-28T19:15:10.011Z,45.67
2018-11-28T19:17:38.467Z,60.70
2018-11-28T19:20:13.300Z,46.17
2018-11-28T19:22:42.029Z,44.23
2018-11-28T19:25:13.758Z,44.27
2018-11-28T19:27:42.336Z,50.97
2018-11-28T19:30:24.111Z,86.80
2018-11-28T19:32:52.572Z,46.70
2018-11-28T19:35:21.059Z,44.27
2018-11-28T19:37:49.567Z,46.27
2018-11-28T19:40:57.543Z,41.37
2018-11-28T19:43:26.044Z,41.73
2018-11-28T19:45:54.538Z,44.13
2018-11-28T19:48:23.006Z,40.93
2018-11-28T19:50:51.586Z,45.73
2018-11-28T19:53:20.053Z,42.93
2018-11-28T19:55:48.538Z,41.47
2018-11-28T19:58:17.042Z,40.17
2018-11-28T20:00:46.442Z,41.23
2018-11-28T20:03:14.946Z,40.37
2018-11-28T20:05:43.422Z,42.43
2018-11-28T20:08:11.986Z,39.03
2018-11-28T20:10:40.478Z,38.73
2018-11-28T20:13:09.868Z,40.43
2018-11-28T20:15:40.041Z,38.77
2018-11-28T20:18:08.613Z,39.17
2018-11-28T20:20:37.043Z,39.10
2018-11-28T20:23:05.852Z,38.97
2018-11-28T20:25:34.335Z,37.57
2018-11-28T20:28:02.811Z,40.23
2018-11-28T20:30:33.859Z,38.57
2018-11-28T20:33:02.395Z,39.50
2018-11-28T20:35:30.891Z,38.30
2018-11-28T20:37:59.351Z,36.13
2018-11-28T20:40:27.819Z,37.30
2018-11-28T20:42:56.726Z,34.60
2018-11-28T20:45:25.305Z,35.60
2018-11-28T20:47:53.839Z,35.87
2018-11-28T20:50:26.646Z,36.00
2018-11-28T20:52:56.706Z,36.87
2018-11-28T20:55:25.177Z,35.83
2018-11-28T20:57:53.605Z,34.40
2018-11-28T21:00:23.565Z,35.50
2018-11-28T21:02:52.077Z,40.07
2018-11-28T21:05:20.560Z,33.80
2018-11-28T21:07:49.050Z,36.00
2018-11-28T21:10:22.787Z,34.17
2018-11-28T21:12:51.200Z,35.60
2018-11-28T21:15:19.662Z,38.20
2018-11-28T21:17:48.215Z,34.83
2018-11-28T21:20:17.711Z,34.40
2018-11-28T21:23:00.205Z,34.57
2018-11-28T21:25:28.727Z,35.63
2018-11-28T21:27:57.337Z,39.50
2018-11-28T21:30:26.085Z,34.87
2018-11-28T21:32:56.834Z,36.57
2018-11-28T21:35:29.727Z,34.80
2018-11-28T21:37:58.355Z,33.93
2018-11-28T21:40:27.037Z,35.10
2018-11-28T21:42:55.810Z,35.47
2018-11-28T21:45:25.071Z,32.60
2018-11-28T21:47:53.550Z,36.43
2018-11-28T21:50:22.012Z,33.67
2018-11-28T21:52:50.515Z,32.10
2018-11-28T21:55:20.260Z,33.90
2018-11-28T21:57:49.311Z,33.03
2018-11-28T22:00:19.880Z,33.00
2018-11-28T22:02:48.672Z,34.80
2018-11-28T22:05:17.542Z,33.23
2018-11-28T22:07:47.487Z,33.73
2018-11-28T22:11:28.791Z,31.20
2018-11-28T22:13:57.332Z,32.60
2018-11-28T22:16:26.250Z,31.60
2018-11-28T22:18:54.820Z,29.77
2018-11-28T22:21:23.642Z,30.90
2018-11-28T22:23:52.146Z,29.30
2018-11-28T22:26:20.710Z,30.90
2018-11-28T22:28:51.052Z,32.27
2018-11-28T22:31:19.640Z,31.20
2018-11-28T22:33:48.149Z,30.20
2018-11-28T22:36:16.641Z,31.03
2018-11-28T22:38:45.118Z,29.80
2018-11-28T22:41:13.657Z,29.83
2018-11-28T22:43:42.195Z,34.17
2018-11-28T22:46:10.703Z,29.00
2018-11-28T22:48:39.107Z,31.30
2018-11-28T22:51:07.596Z,32.17
2018-11-28T22:53:36.005Z,31.90
2018-11-28T22:56:04.522Z,31.80
2018-11-28T22:58:32.929Z,31.63
2018-11-28T23:01:08.232Z,32.20
2018-11-28T23:03:36.709Z,34.27
2018-11-28T23:06:05.294Z,33.00
2018-11-28T23:08:33.916Z,33.37
2018-11-28T23:11:02.366Z,37.97
2018-11-28T23:13:30.822Z,33.50
2018-11-28T23:15:59.400Z,31.27
2018-11-28T23:18:27.815Z,33.57
2018-11-28T23:20:56.346Z,33.03
2018-11-28T23:23:24.825Z,32.13
2018-11-28T23:25:53.359Z,32.77
2018-11-28T23:28:21.870Z,33.30
2018-11-28T23:30:50.255Z,33.40
2018-11-28T23:33:18.752Z,34.07
2018-11-28T23:35:47.244Z,34.67
2018-11-28T23:38:15.685Z,38.20
2018-11-28T23:40:44.167Z,37.87
2018-11-28T23:43:12.666Z,38.17
2018-11-28T23:45:41.068Z,37.50
2018-11-28T23:48:09.487Z,38.83
2018-11-28T23:50:38.105Z,38.13
2018-11-28T23:53:06.604Z,39.97
2018-11-28T23:55:35.102Z,39.00
2018-11-28T23:58:03.640Z,39.10
